createdAt,value
2022-08-21T00:02:21.336Z,20.20
2022-08-21T00:04:57.237Z,20.00
2022-08-21T00:07:25.921Z,20.00
2022-08-21T00:09:54.549Z,20.00
2022-08-21T00:12:24.231Z,20.00
2022-08-21T00:14:51.414Z,19.90
2022-08-21T00:17:23.993Z,19.90
2022-08-21T00:19:50.927Z,20.00
2022-08-21T00:22:18.395Z,19.90
2022-08-21T00:24:45.370Z,19.90
2022-08-21T00:27:12.326Z,19.90
2022-08-21T00:29:39.868Z,19.80
2022-08-21T00:32:06.912Z,19.90
2022-08-21T00:34:33.991Z,19.90
2022-08-21T00:37:00.921Z,19.80
2022-08-21T00:39:27.818Z,19.80
2022-08-21T00:41:54.712Z,19.90
2022-08-21T00:44:21.594Z,19.80
2022-08-21T00:46:48.494Z,19.80
2022-08-21T00:49:15.514Z,19.90
2022-08-21T00:51:53.131Z,19.90
2022-08-21T00:54:23.514Z,19.90
2022-08-21T00:56:55.999Z,19.80
2022-08-21T00:59:27.679Z,19.80
2022-08-21T01:01:54.707Z,19.80
2022-08-21T01:04:23.434Z,19.80
2022-08-21T01:06:52.630Z,19.80
2022-08-21T01:09:20.095Z,19.80
2022-08-21T01:11:47.734Z,19.80
2022-08-21T01:14:15.939Z,19.70
2022-08-21T01:16:46.390Z,19.70
2022-08-21T01:19:15.193Z,19.70
2022-08-21T01:21:43.873Z,19.70
2022-08-21T01:24:12.168Z,19.70
2022-08-21T01:26:39.507Z,19.80
2022-08-21T01:29:31.744Z,19.70
2022-08-21T01:32:00.566Z,19.80
2022-08-21T01:34:27.439Z,19.70
2022-08-21T01:36:54.385Z,19.80
2022-08-21T01:39:21.531Z,19.80
2022-08-21T01:41:48.426Z,19.70
2022-08-21T01:44:15.316Z,19.70
2022-08-21T01:46:42.247Z,19.60
2022-08-21T01:49:09.679Z,19.70
2022-08-21T01:51:36.760Z,19.70
2022-08-21T01:54:03.765Z,19.70
2022-08-21T01:56:44.993Z,19.70
2022-08-21T01:59:12.639Z,19.60
2022-08-21T02:01:42.367Z,19.60
2022-08-21T02:04:10.973Z,19.60
2022-08-21T02:06:39.109Z,19.60
2022-08-21T02:09:08.029Z,19.60
2022-08-21T02:11:36.175Z,19.60
2022-08-21T02:14:03.291Z,19.50
2022-08-21T02:16:30.161Z,19.50
2022-08-21T02:18:57.501Z,19.60
2022-08-21T02:21:24.616Z,19.60
2022-08-21T02:23:51.482Z,19.60
2022-08-21T02:26:18.955Z,19.60
2022-08-21T02:28:46.044Z,19.60
2022-08-21T02:31:12.976Z,19.60
2022-08-21T02:33:40.425Z,19.60
2022-08-21T02:36:08.676Z,19.60
2022-08-21T02:38:40.862Z,19.60
2022-08-21T02:41:11.222Z,19.60
2022-08-21T02:43:38.164Z,19.60
2022-08-21T02:46:06.713Z,19.60
2022-08-21T02:48:35.059Z,19.60
2022-08-21T02:51:06.088Z,19.60
2022-08-21T02:53:33.719Z,19.60
2022-08-21T02:56:02.693Z,19.60
2022-08-21T02:58:35.215Z,19.60
2022-08-21T03:01:02.383Z,19.60
2022-08-21T03:03:30.358Z,19.60
2022-08-21T03:05:57.902Z,19.60
2022-08-21T03:08:27.595Z,19.60
2022-08-21T03:10:55.026Z,19.60
2022-08-21T03:13:22.657Z,19.60
2022-08-21T03:15:50.728Z,19.60
2022-08-21T03:18:18.742Z,19.60
2022-08-21T03:20:46.488Z,19.60
2022-08-21T03:23:18.539Z,19.60
2022-08-21T03:25:48.935Z,19.70
2022-08-21T03:28:20.039Z,19.70
2022-08-21T03:30:49.709Z,19.70
2022-08-21T03:33:17.149Z,19.70
2022-08-21T03:35:53.479Z,19.70
2022-08-21T03:38:25.881Z,19.70
2022-08-21T03:40:54.063Z,19.70
2022-08-21T03:43:21.216Z,19.70
2022-08-21T03:45:48.383Z,19.70
2022-08-21T03:48:15.632Z,19.70
2022-08-21T03:50:44.276Z,19.70
2022-08-21T03:53:17.449Z,19.70
2022-08-21T03:55:50.068Z,19.70
2022-08-21T03:58:18.719Z,19.70
2022-08-21T04:00:47.827Z,19.70
2022-08-21T04:03:14.989Z,19.70
2022-08-21T04:05:42.213Z,19.70
2022-08-21T04:08:09.802Z,19.70
2022-08-21T04:10:39.406Z,19.70
2022-08-21T04:13:08.146Z,19.70
2022-08-21T04:15:35.576Z,19.80
2022-08-21T04:18:02.792Z,19.80
2022-08-21T04:20:29.722Z,19.80
2022-08-21T04:22:57.521Z,19.80
2022-08-21T04:25:26.572Z,19.80
2022-08-21T04:27:54.177Z,19.80
2022-08-21T04:30:21.337Z,19.80
2022-08-21T04:32:55.286Z,19.80
2022-08-21T04:35:24.842Z,19.80
2022-08-21T04:37:51.946Z,19.80
2022-08-21T04:40:20.519Z,19.80
2022-08-21T04:42:56.229Z,19.80
2022-08-21T04:45:29.889Z,19.80
2022-08-21T04:47:59.358Z,19.90
2022-08-21T04:50:40.564Z,19.90
2022-08-21T04:53:13.156Z,19.90
2022-08-21T04:55:41.810Z,19.90
2022-08-21T04:58:12.310Z,19.90
2022-08-21T05:00:39.879Z,19.90
2022-08-21T05:03:08.849Z,19.90
2022-08-21T05:05:36.065Z,19.90
2022-08-21T05:08:04.359Z,20.00
2022-08-21T05:10:32.557Z,20.00
2022-08-21T05:13:01.589Z,19.90
2022-08-21T05:15:28.516Z,19.90
2022-08-21T05:18:01.058Z,20.00
2022-08-21T05:20:29.037Z,20.00
2022-08-21T05:22:56.217Z,20.00
2022-08-21T05:25:23.868Z,20.10
2022-08-21T05:27:52.256Z,20.10
2022-08-21T05:30:20.484Z,20.00
2022-08-21T05:32:48.910Z,20.00
2022-08-21T05:35:16.223Z,20.10
2022-08-21T05:37:43.224Z,20.10
2022-08-21T05:40:20.970Z,20.10
2022-08-21T05:42:54.364Z,20.10
2022-08-21T05:45:42.969Z,20.00
2022-08-21T05:48:14.002Z,20.00
2022-08-21T05:50:41.818Z,20.00
2022-08-21T05:53:10.740Z,20.00
2022-08-21T05:55:42.767Z,20.00
2022-08-21T05:58:13.062Z,20.00
2022-08-21T06:00:40.504Z,20.10
2022-08-21T06:03:12.766Z,20.00
2022-08-21T06:05:39.973Z,20.10
2022-08-21T06:08:06.924Z,20.00
2022-08-21T06:10:33.909Z,20.10
2022-08-21T06:13:01.053Z,20.10
2022-08-21T06:15:28.367Z,20.00
2022-08-21T06:17:55.823Z,20.00
2022-08-21T06:20:23.621Z,20.00
2022-08-21T06:22:50.557Z,20.10
2022-08-21T06:25:17.744Z,20.10
2022-08-21T06:27:44.973Z,20.10
2022-08-21T06:30:12.352Z,20.10
2022-08-21T06:32:39.670Z,20.10
2022-08-21T06:35:08.044Z,20.10
2022-08-21T06:37:34.964Z,20.10
2022-08-21T06:40:02.461Z,20.10
2022-08-21T06:42:29.502Z,20.10
2022-08-21T06:44:57.956Z,20.10
2022-08-21T06:47:24.905Z,20.10
2022-08-21T06:49:51.808Z,20.00
2022-08-21T06:52:18.747Z,20.10
2022-08-21T06:54:45.691Z,20.10
2022-08-21T06:57:12.589Z,20.10
2022-08-21T06:59:39.587Z,20.00
2022-08-21T07:02:06.501Z,19.90
2022-08-21T07:04:33.387Z,19.90
2022-08-21T07:07:00.490Z,19.90
2022-08-21T07:09:27.837Z,19.90
2022-08-21T07:11:56.793Z,19.80
2022-08-21T07:14:23.957Z,19.70
2022-08-21T07:16:52.159Z,19.80
2022-08-21T07:19:19.499Z,19.80
2022-08-21T07:21:47.499Z,19.80
2022-08-21T07:24:14.917Z,19.70
2022-08-21T07:26:42.128Z,19.70
2022-08-21T07:29:09.380Z,19.70
2022-08-21T07:31:36.302Z,19.60
2022-08-21T07:34:03.331Z,19.60
2022-08-21T07:36:30.190Z,19.60
2022-08-21T07:39:00.360Z,19.50
2022-08-21T07:41:30.139Z,19.50
2022-08-21T07:44:00.570Z,19.40
2022-08-21T07:46:28.486Z,19.40
2022-08-21T07:48:55.386Z,19.40
2022-08-21T07:51:26.992Z,19.40
2022-08-21T07:53:56.228Z,19.40
2022-08-21T07:56:23.746Z,19.40
2022-08-21T07:58:50.837Z,19.40
2022-08-21T08:01:18.093Z,19.30
2022-08-21T08:03:46.218Z,19.30
2022-08-21T08:06:13.677Z,19.30
2022-08-21T08:08:42.148Z,19.30
2022-08-21T08:11:13.291Z,19.40
2022-08-21T08:13:51.733Z,19.40
2022-08-21T08:16:19.880Z,19.40
2022-08-21T08:18:47.265Z,19.50
2022-08-21T08:21:16.135Z,19.60
2022-08-21T08:23:45.281Z,19.70
2022-08-21T08:26:12.595Z,20.00
2022-08-21T08:28:39.679Z,20.00
2022-08-21T08:31:06.603Z,20.20
2022-08-21T08:33:33.490Z,20.10
2022-08-21T08:36:04.699Z,20.30
2022-08-21T08:38:35.082Z,20.30
2022-08-21T08:41:14.005Z,20.40
2022-08-21T08:43:45.318Z,20.40
2022-08-21T08:46:31.469Z,20.40
2022-08-21T08:49:10.108Z,20.50
2022-08-21T08:51:53.328Z,20.50
2022-08-21T08:54:45.518Z,20.30
2022-08-21T08:57:18.758Z,20.20
2022-08-21T08:59:50.401Z,20.30
2022-08-21T09:02:22.094Z,20.40
2022-08-21T09:04:51.158Z,20.40
2022-08-21T09:07:41.276Z,20.40
2022-08-21T09:10:37.261Z,20.50
2022-08-21T09:13:25.026Z,20.60
2022-08-21T09:16:35.479Z,20.60
2022-08-21T09:19:28.753Z,20.90
2022-08-21T09:22:10.660Z,20.80
2022-08-21T09:24:51.385Z,20.60
2022-08-21T09:27:20.437Z,20.50
2022-08-21T09:29:51.946Z,20.50
2022-08-21T09:32:37.202Z,20.50
2022-08-21T09:35:22.101Z,20.50
2022-08-21T09:38:03.455Z,20.40
2022-08-21T09:44:30.441Z,20.10
2022-08-21T09:50:38.181Z,19.90
2022-08-21T09:53:05.636Z,19.80
2022-08-21T09:56:08.369Z,19.80
2022-08-21T10:02:30.482Z,19.90
2022-08-21T10:05:29.637Z,19.80
2022-08-21T10:07:56.633Z,19.70
2022-08-21T10:10:37.835Z,19.80
2022-08-21T10:13:50.164Z,19.80
2022-08-21T10:16:31.864Z,19.60
2022-08-21T10:19:16.836Z,19.30
2022-08-21T10:21:55.734Z,19.20
2022-08-21T10:24:46.637Z,19.20
2022-08-21T10:27:13.503Z,19.30
2022-08-21T10:30:09.723Z,19.50
2022-08-21T10:33:06.189Z,19.60
2022-08-21T10:36:03.267Z,19.70
2022-08-21T10:39:23.446Z,19.80
2022-08-21T10:42:36.774Z,20.00
2022-08-21T10:45:30.259Z,19.90
2022-08-21T10:48:09.021Z,19.70
2022-08-21T10:50:52.956Z,19.50
2022-08-21T10:54:00.364Z,19.50
2022-08-21T10:56:32.027Z,19.50
2022-08-21T10:59:16.965Z,19.40
2022-08-21T11:01:59.770Z,19.40
2022-08-21T11:04:53.285Z,19.30
2022-08-21T11:07:30.683Z,19.20
2022-08-21T11:10:06.601Z,19.10
2022-08-21T11:12:43.635Z,19.10
2022-08-21T11:15:56.591Z,19.20
2022-08-21T11:18:27.458Z,19.20
2022-08-21T11:21:24.927Z,19.40
2022-08-21T11:24:05.727Z,19.50
2022-08-21T11:26:52.422Z,19.50
2022-08-21T11:29:27.861Z,19.40
2022-08-21T11:32:12.487Z,19.40
2022-08-21T11:35:18.012Z,19.50
2022-08-21T11:37:56.674Z,19.30
2022-08-21T11:40:40.854Z,19.40
2022-08-21T11:43:13.281Z,19.30
2022-08-21T11:45:50.218Z,19.20
2022-08-21T11:48:35.874Z,19.20
2022-08-21T11:51:08.589Z,19.10
2022-08-21T11:53:54.025Z,19.10
2022-08-21T11:56:38.265Z,19.10
2022-08-21T11:59:12.244Z,19.00
2022-08-21T12:01:44.096Z,19.10
2022-08-21T12:04:42.802Z,19.20
2022-08-21T12:07:29.540Z,19.20
2022-08-21T12:09:58.370Z,19.10
2022-08-21T12:12:30.806Z,19.20
2022-08-21T12:15:18.231Z,19.20
2022-08-21T12:18:02.989Z,19.10
2022-08-21T12:20:49.996Z,19.10
2022-08-21T12:23:28.853Z,19.10
2022-08-21T12:26:13.959Z,19.20
2022-08-21T12:28:41.500Z,19.20
2022-08-21T12:31:24.383Z,19.30
2022-08-21T12:33:55.681Z,19.30
2022-08-21T12:36:38.815Z,19.20
2022-08-21T12:39:12.589Z,19.20
2022-08-21T12:41:50.935Z,19.20
2022-08-21T12:44:24.350Z,19.20
2022-08-21T12:47:06.367Z,19.10
2022-08-21T12:49:36.041Z,19.10
2022-08-21T12:52:07.375Z,19.20
2022-08-21T12:54:44.955Z,19.20
2022-08-21T12:57:24.002Z,19.10
2022-08-21T12:59:56.404Z,19.00
2022-08-21T13:02:36.517Z,18.90
2022-08-21T13:05:06.424Z,18.90
2022-08-21T13:07:36.648Z,18.90
2022-08-21T13:10:17.550Z,18.80
2022-08-21T13:12:46.170Z,18.80
2022-08-21T13:15:14.618Z,18.70
2022-08-21T13:17:49.600Z,18.60
2022-08-21T13:20:26.412Z,18.60
2022-08-21T13:22:53.399Z,18.60
2022-08-21T13:25:22.440Z,18.60
2022-08-21T13:28:11.853Z,18.60
2022-08-21T13:30:54.281Z,18.60
2022-08-21T13:33:37.543Z,18.50
2022-08-21T13:36:25.991Z,18.50
2022-08-21T13:38:55.266Z,18.50
2022-08-21T13:41:35.029Z,18.30
2022-08-21T13:44:07.086Z,18.20
2022-08-21T13:46:36.827Z,18.30
2022-08-21T13:49:07.016Z,18.40
2022-08-21T13:51:34.856Z,18.30
2022-08-21T13:54:02.297Z,18.40
2022-08-21T13:56:42.744Z,18.30
2022-08-21T13:59:09.751Z,18.20
2022-08-21T14:02:00.212Z,18.30
2022-08-21T14:04:37.138Z,18.20
2022-08-21T14:07:16.045Z,18.20
2022-08-21T14:09:45.938Z,18.30
2022-08-21T14:12:23.183Z,18.20
2022-08-21T14:14:51.802Z,18.10
2022-08-21T14:17:35.300Z,18.00
2022-08-21T14:20:03.036Z,17.90
2022-08-21T14:22:37.107Z,17.90
2022-08-21T14:25:08.244Z,17.80
2022-08-21T14:27:40.683Z,17.80
2022-08-21T14:30:17.175Z,17.70
2022-08-21T14:32:46.094Z,17.70
2022-08-21T14:35:13.636Z,17.80
2022-08-21T14:37:44.806Z,17.80
2022-08-21T14:40:13.592Z,17.80
2022-08-21T14:42:44.542Z,17.80
2022-08-21T14:45:27.525Z,17.80
2022-08-21T14:47:55.194Z,17.70
2022-08-21T14:50:22.859Z,17.70
2022-08-21T14:52:50.232Z,17.40
2022-08-21T14:55:19.480Z,17.20
2022-08-21T14:57:51.719Z,17.10
2022-08-21T15:00:27.093Z,17.10
2022-08-21T15:03:03.942Z,16.90
2022-08-21T15:05:33.821Z,16.90
2022-08-21T15:08:01.556Z,16.90
2022-08-21T15:10:28.973Z,16.90
2022-08-21T15:12:56.583Z,16.90
2022-08-21T15:15:23.459Z,16.90
2022-08-21T15:17:50.358Z,16.90
2022-08-21T15:20:17.228Z,17.00
2022-08-21T15:22:47.459Z,17.00
2022-08-21T15:25:15.086Z,17.10
2022-08-21T15:27:42.216Z,17.10
2022-08-21T15:30:10.002Z,17.20
2022-08-21T15:32:36.929Z,17.20
2022-08-21T15:35:04.776Z,17.30
2022-08-21T15:37:31.700Z,17.30
2022-08-21T15:39:58.781Z,17.30
2022-08-21T15:42:30.095Z,17.30
2022-08-21T15:44:58.450Z,17.40
2022-08-21T15:47:35.124Z,17.40
2022-08-21T15:50:03.090Z,17.40
2022-08-21T15:52:29.967Z,17.40
2022-08-21T15:54:56.909Z,17.40
2022-08-21T15:57:25.359Z,17.30
2022-08-21T15:59:55.815Z,17.30
2022-08-21T16:02:27.194Z,17.40
2022-08-21T16:04:54.918Z,17.40
2022-08-21T16:07:21.815Z,17.40
2022-08-21T16:09:48.743Z,17.40
2022-08-21T16:12:25.031Z,17.30
2022-08-21T16:14:54.114Z,17.30
2022-08-21T16:17:25.693Z,17.30
2022-08-21T16:19:52.716Z,17.20
2022-08-21T16:22:19.607Z,17.20
2022-08-21T16:24:46.483Z,17.20
2022-08-21T16:27:14.185Z,17.20
2022-08-21T16:29:41.808Z,17.20
2022-08-21T16:32:09.181Z,17.20
2022-08-21T16:34:36.889Z,17.20
2022-08-21T16:37:04.426Z,17.20
2022-08-21T16:39:31.374Z,17.10
2022-08-21T16:41:58.306Z,17.10
2022-08-21T16:44:25.235Z,17.10
2022-08-21T16:46:57.159Z,17.10
2022-08-21T16:49:23.998Z,17.20
2022-08-21T16:51:50.894Z,17.10
2022-08-21T16:54:17.949Z,17.10
2022-08-21T16:56:47.707Z,17.00
2022-08-21T16:59:15.145Z,17.00
2022-08-21T17:01:45.043Z,16.90
2022-08-21T17:04:12.089Z,16.90
2022-08-21T17:06:39.149Z,16.80
2022-08-21T17:09:06.069Z,16.80
2022-08-21T17:11:38.105Z,16.80
2022-08-21T17:14:12.928Z,16.80
2022-08-21T17:16:44.451Z,16.70
2022-08-21T17:19:13.171Z,16.60
2022-08-21T17:21:40.035Z,16.60
2022-08-21T17:24:07.049Z,16.50
2022-08-21T17:26:34.513Z,16.50
2022-08-21T17:29:01.683Z,16.50
2022-08-21T17:31:29.795Z,16.50
2022-08-21T17:33:56.938Z,16.50
2022-08-21T17:36:26.854Z,16.60
2022-08-21T17:38:53.944Z,16.60
2022-08-21T17:41:21.446Z,16.60
2022-08-21T17:43:48.708Z,16.50
2022-08-21T17:46:21.913Z,16.50
2022-08-21T17:48:48.867Z,16.40
2022-08-21T17:51:17.092Z,16.30
2022-08-21T17:53:45.109Z,16.30
2022-08-21T17:56:15.028Z,16.20
2022-08-21T17:58:49.582Z,16.20
2022-08-21T18:01:17.519Z,16.10
2022-08-21T18:03:47.193Z,16.10
2022-08-21T18:06:17.646Z,16.10
2022-08-21T18:08:45.102Z,16.10
2022-08-21T18:11:18.053Z,16.10
2022-08-21T18:13:52.817Z,16.10
2022-08-21T18:16:20.123Z,16.00
2022-08-21T18:18:49.197Z,16.10
2022-08-21T18:21:16.707Z,16.10
2022-08-21T18:23:44.926Z,16.10
2022-08-21T18:26:15.579Z,16.10
2022-08-21T18:28:44.385Z,16.10
2022-08-21T18:31:13.016Z,16.10
2022-08-21T18:33:55.960Z,16.00
2022-08-21T18:36:27.463Z,16.00
2022-08-21T18:38:56.973Z,16.00
2022-08-21T18:41:32.333Z,16.00
2022-08-21T18:43:59.221Z,15.90
2022-08-21T18:46:26.132Z,15.80
2022-08-21T18:48:52.981Z,15.80
2022-08-21T18:51:19.878Z,15.80
2022-08-21T18:53:50.625Z,15.80
2022-08-21T18:56:22.415Z,15.80
2022-08-21T18:58:50.925Z,15.80
2022-08-21T19:01:17.876Z,15.80
2022-08-21T19:03:45.400Z,15.80
2022-08-21T19:06:12.419Z,15.70
2022-08-21T19:08:39.543Z,15.70
2022-08-21T19:11:07.181Z,15.60
2022-08-21T19:13:35.079Z,15.50
2022-08-21T19:16:05.340Z,15.60
2022-08-21T19:18:38.260Z,15.60
2022-08-21T19:21:06.741Z,15.50
2022-08-21T19:23:35.162Z,15.60
2022-08-21T19:26:03.947Z,15.50
2022-08-21T19:28:41.215Z,15.60
2022-08-21T19:31:27.833Z,15.70
2022-08-21T19:34:04.510Z,15.60
2022-08-21T19:36:32.490Z,15.60
2022-08-21T19:39:00.721Z,15.70
2022-08-21T19:41:31.169Z,15.80
2022-08-21T19:44:02.660Z,15.80
2022-08-21T19:46:33.196Z,15.90
2022-08-21T19:49:04.863Z,15.90
2022-08-21T19:51:34.802Z,16.00
2022-08-21T19:54:01.693Z,16.10
2022-08-21T19:56:31.921Z,16.10
2022-08-21T19:59:03.904Z,16.00
2022-08-21T20:01:33.069Z,15.90
2022-08-21T20:04:00.308Z,15.90
2022-08-21T20:06:27.430Z,16.00
2022-08-21T20:08:56.158Z,15.80
2022-08-21T20:11:31.872Z,15.90
2022-08-21T20:14:00.682Z,15.80
2022-08-21T20:16:28.609Z,15.80
2022-08-21T20:18:56.048Z,15.80
2022-08-21T20:21:23.313Z,15.80
2022-08-21T20:23:50.224Z,15.80
2022-08-21T20:26:18.930Z,15.90
2022-08-21T20:28:46.330Z,16.00
2022-08-21T20:31:19.614Z,16.00
2022-08-21T20:33:49.649Z,16.00
2022-08-21T20:36:17.281Z,16.10
2022-08-21T20:38:44.575Z,16.00
2022-08-21T20:41:17.927Z,16.10
2022-08-21T20:43:57.801Z,16.10
2022-08-21T20:46:27.955Z,16.00
2022-08-21T20:48:55.653Z,16.00
2022-08-21T20:51:37.142Z,15.90
2022-08-21T20:54:26.080Z,15.80
2022-08-21T20:57:13.643Z,15.80
2022-08-21T20:59:53.057Z,15.90
2022-08-21T21:02:54.036Z,16.00
2022-08-21T21:05:52.903Z,16.00
2022-08-21T21:08:35.821Z,15.90
2022-08-21T21:11:16.347Z,15.80
2022-08-21T21:14:00.456Z,15.80
2022-08-21T21:16:36.882Z,15.70
2022-08-21T21:19:37.018Z,15.70
2022-08-21T21:22:19.401Z,15.60
2022-08-21T21:25:14.623Z,15.70
2022-08-21T21:28:17.689Z,15.70
2022-08-21T21:30:47.051Z,15.70
2022-08-21T21:33:24.817Z,15.60
2022-08-21T21:35:59.271Z,15.50
2022-08-21T21:38:51.590Z,15.60
2022-08-21T21:41:36.729Z,15.50
2022-08-21T21:44:42.018Z,15.50
2022-08-21T21:47:23.467Z,15.50
2022-08-21T21:50:18.762Z,15.50
2022-08-21T21:53:04.465Z,15.50
2022-08-21T21:56:13.280Z,15.50
2022-08-21T21:58:52.156Z,15.50
2022-08-21T22:01:27.744Z,15.50
2022-08-21T22:04:17.071Z,15.50
2022-08-21T22:07:32.402Z,15.50
2022-08-21T22:10:20.042Z,15.60
2022-08-21T22:13:26.497Z,15.60
2022-08-21T22:15:54.652Z,15.60
2022-08-21T22:18:29.435Z,15.60
2022-08-21T22:21:05.982Z,15.60
2022-08-21T22:23:40.143Z,15.60
2022-08-21T22:26:11.226Z,15.70
2022-08-21T22:28:41.792Z,15.70
2022-08-21T22:31:28.339Z,15.80
2022-08-21T22:34:14.241Z,15.80
2022-08-21T22:36:57.391Z,15.90
2022-08-21T22:39:43.068Z,15.80
2022-08-21T22:42:28.184Z,15.90
2022-08-21T22:45:12.109Z,15.90
2022-08-21T22:47:41.598Z,15.90
2022-08-21T22:50:26.970Z,15.90
2022-08-21T22:53:09.395Z,15.80
2022-08-21T22:55:43.876Z,15.80
2022-08-21T22:58:30.634Z,15.80
2022-08-21T23:01:19.576Z,15.80
2022-08-21T23:03:52.950Z,15.80
2022-08-21T23:06:43.517Z,15.80
2022-08-21T23:09:21.873Z,15.80
2022-08-21T23:14:36.903Z,15.70
2022-08-21T23:17:22.991Z,15.70
2022-08-21T23:20:10.234Z,15.70
2022-08-21T23:22:55.042Z,15.80
2022-08-21T23:25:45.400Z,15.80
2022-08-21T23:28:27.195Z,15.80
2022-08-21T23:31:17.943Z,15.80
2022-08-21T23:34:19.670Z,15.80
2022-08-21T23:37:23.226Z,15.80
2022-08-21T23:40:11.420Z,15.70
2022-08-21T23:43:02.237Z,15.70
2022-08-21T23:45:56.729Z,15.70
2022-08-21T23:48:51.946Z,15.70
2022-08-21T23:51:27.204Z,15.70
2022-08-21T23:54:42.466Z,15.70
2022-08-21T23:57:38.625Z,15.70
